sensor_id;sensor_type;location;lat;lon;timestamp;temperature;humidity
19781;DHT22;10050;55.492;13.506;2023-02-04T00:01:47;1.00;99.90
19781;DHT22;10050;55.492;13.506;2023-02-04T00:04:13;1.00;99.90
19781;DHT22;10050;55.492;13.506;2023-02-04T00:06:39;0.90;99.90
19781;DHT22;10050;55.492;13.506;2023-02-04T00:09:04;0.90;99.90
19781;DHT22;10050;55.492;13.506;2023-02-04T00:11:30;0.90;99.90
19781;DHT22;10050;55.492;13.506;2023-02-04T00:13:56;0.80;99.90
19781;DHT22;10050;55.492;13.506;2023-02-04T00:16:22;0.80;99.90
19781;DHT22;10050;55.492;13.506;2023-02-04T00:18:48;0.80;99.90
19781;DHT22;10050;55.492;13.506;2023-02-04T00:21:13;0.80;99.90
19781;DHT22;10050;55.492;13.506;2023-02-04T00:23:39;0.80;99.90
19781;DHT22;10050;55.492;13.506;2023-02-04T00:26:05;0.80;99.90
19781;DHT22;10050;55.492;13.506;2023-02-04T00:28:30;0.80;99.90
19781;DHT22;10050;55.492;13.506;2023-02-04T00:30:56;0.80;99.90
19781;DHT22;10050;55.492;13.506;2023-02-04T00:33:22;0.70;99.90
19781;DHT22;10050;55.492;13.506;2023-02-04T00:35:47;0.70;99.90
19781;DHT22;10050;55.492;13.506;2023-02-04T00:38:13;0.80;99.90
19781;DHT22;10050;55.492;13.506;2023-02-04T00:40:38;0.80;99.90
19781;DHT22;10050;55.492;13.506;2023-02-04T00:43:04;0.80;99.90
19781;DHT22;10050;55.492;13.506;2023-02-04T00:45:30;0.80;99.90
19781;DHT22;10050;55.492;13.506;2023-02-04T00:47:55;0.70;99.90
19781;DHT22;10050;55.492;13.506;2023-02-04T00:50:22;0.70;99.90
19781;DHT22;10050;55.492;13.506;2023-02-04T00:52:48;0.70;99.90
19781;DHT22;10050;55.492;13.506;2023-02-04T00:55:14;0.70;99.90
19781;DHT22;10050;55.492;13.506;2023-02-04T00:57:41;0.80;99.90
19781;DHT22;10050;55.492;13.506;2023-02-04T01:00:09;0.70;99.90
19781;DHT22;10050;55.492;13.506;2023-02-04T01:02:35;0.60;99.90
19781;DHT22;10050;55.492;13.506;2023-02-04T01:05:00;0.60;99.90
19781;DHT22;10050;55.492;13.506;2023-02-04T01:07:26;0.60;99.90
19781;DHT22;10050;55.492;13.506;2023-02-04T01:09:52;0.60;99.90
19781;DHT22;10050;55.492;13.506;2023-02-04T01:12:17;0.70;99.90
19781;DHT22;10050;55.492;13.506;2023-02-04T01:14:43;0.60;99.90
19781;DHT22;10050;55.492;13.506;2023-02-04T01:17:09;0.60;99.90
19781;DHT22;10050;55.492;13.506;2023-02-04T01:19:34;0.60;99.90
19781;DHT22;10050;55.492;13.506;2023-02-04T01:22:00;0.60;99.90
19781;DHT22;10050;55.492;13.506;2023-02-04T01:24:26;0.50;99.90
19781;DHT22;10050;55.492;13.506;2023-02-04T01:26:51;0.50;99.90
19781;DHT22;10050;55.492;13.506;2023-02-04T01:29:17;0.50;99.90
19781;DHT22;10050;55.492;13.506;2023-02-04T01:31:42;0.50;99.90
19781;DHT22;10050;55.492;13.506;2023-02-04T01:34:08;0.50;99.90
19781;DHT22;10050;55.492;13.506;2023-02-04T01:36:34;0.50;99.90
19781;DHT22;10050;55.492;13.506;2023-02-04T01:38:59;0.50;99.90
19781;DHT22;10050;55.492;13.506;2023-02-04T01:41:25;0.50;99.90
19781;DHT22;10050;55.492;13.506;2023-02-04T01:43:51;0.50;99.90
19781;DHT22;10050;55.492;13.506;2023-02-04T01:46:17;0.50;99.90
19781;DHT22;10050;55.492;13.506;2023-02-04T01:48:43;0.50;99.90
19781;DHT22;10050;55.492;13.506;2023-02-04T01:51:14;0.50;99.90
19781;DHT22;10050;55.492;13.506;2023-02-04T01:53:42;0.50;99.90
19781;DHT22;10050;55.492;13.506;2023-02-04T01:56:20;0.40;99.90
19781;DHT22;10050;55.492;13.506;2023-02-04T01:58:46;0.40;99.90
19781;DHT22;10050;55.492;13.506;2023-02-04T02:01:15;0.40;99.90
19781;DHT22;10050;55.492;13.506;2023-02-04T02:03:57;0.40;99.90
19781;DHT22;10050;55.492;13.506;2023-02-04T02:06:23;0.40;99.90
19781;DHT22;10050;55.492;13.506;2023-02-04T02:08:49;0.30;99.90
19781;DHT22;10050;55.492;13.506;2023-02-04T02:11:15;0.30;99.90
19781;DHT22;10050;55.492;13.506;2023-02-04T02:13:41;0.30;99.90
19781;DHT22;10050;55.492;13.506;2023-02-04T02:16:06;0.20;99.90
19781;DHT22;10050;55.492;13.506;2023-02-04T02:18:32;0.20;99.90
19781;DHT22;10050;55.492;13.506;2023-02-04T02:21:03;0.20;99.90
19781;DHT22;10050;55.492;13.506;2023-02-04T02:23:51;0.20;99.90
19781;DHT22;10050;55.492;13.506;2023-02-04T02:26:18;0.20;99.90
19781;DHT22;10050;55.492;13.506;2023-02-04T02:28:45;0.10;99.90
19781;DHT22;10050;55.492;13.506;2023-02-04T02:31:16;0.20;99.90
19781;DHT22;10050;55.492;13.506;2023-02-04T02:33:42;0.10;99.90
19781;DHT22;10050;55.492;13.506;2023-02-04T02:36:08;0.10;99.90
19781;DHT22;10050;55.492;13.506;2023-02-04T02:38:34;0.20;99.90
19781;DHT22;10050;55.492;13.506;2023-02-04T02:41:00;0.10;99.90
19781;DHT22;10050;55.492;13.506;2023-02-04T02:43:27;0.20;99.90
19781;DHT22;10050;55.492;13.506;2023-02-04T02:45:54;0.20;99.90
19781;DHT22;10050;55.492;13.506;2023-02-04T02:48:21;0.20;99.90
19781;DHT22;10050;55.492;13.506;2023-02-04T02:50:47;0.10;99.90
19781;DHT22;10050;55.492;13.506;2023-02-04T02:53:15;0.10;99.90
19781;DHT22;10050;55.492;13.506;2023-02-04T02:55:42;0.10;99.90
19781;DHT22;10050;55.492;13.506;2023-02-04T02:58:32;0.20;99.90
19781;DHT22;10050;55.492;13.506;2023-02-04T03:01:04;0.10;99.90
19781;DHT22;10050;55.492;13.506;2023-02-04T03:03:33;0.00;99.90
19781;DHT22;10050;55.492;13.506;2023-02-04T03:06:03;0.00;99.90
19781;DHT22;10050;55.492;13.506;2023-02-04T03:08:31;0.00;99.90
19781;DHT22;10050;55.492;13.506;2023-02-04T03:10:56;-0.10;99.90
19781;DHT22;10050;55.492;13.506;2023-02-04T03:13:22;-0.10;99.90
19781;DHT22;10050;55.492;13.506;2023-02-04T03:15:48;-0.10;99.90
19781;DHT22;10050;55.492;13.506;2023-02-04T03:18:16;-0.10;99.90
19781;DHT22;10050;55.492;13.506;2023-02-04T03:20:43;-0.10;99.90
19781;DHT22;10050;55.492;13.506;2023-02-04T03:23:09;-0.10;99.90
19781;DHT22;10050;55.492;13.506;2023-02-04T03:25:35;-0.10;99.90
19781;DHT22;10050;55.492;13.506;2023-02-04T03:28:00;-0.10;99.90
19781;DHT22;10050;55.492;13.506;2023-02-04T03:30:26;-0.10;99.90
19781;DHT22;10050;55.492;13.506;2023-02-04T03:32:52;-0.10;99.90
19781;DHT22;10050;55.492;13.506;2023-02-04T03:35:19;-0.10;99.90
19781;DHT22;10050;55.492;13.506;2023-02-04T03:37:45;0.00;99.90
19781;DHT22;10050;55.492;13.506;2023-02-04T03:40:11;-0.10;99.90
19781;DHT22;10050;55.492;13.506;2023-02-04T03:42:37;0.00;99.90
19781;DHT22;10050;55.492;13.506;2023-02-04T03:45:04;0.00;99.90
19781;DHT22;10050;55.492;13.506;2023-02-04T03:47:29;0.00;99.90
19781;DHT22;10050;55.492;13.506;2023-02-04T03:49:56;-0.10;99.90
19781;DHT22;10050;55.492;13.506;2023-02-04T03:52:22;-0.10;99.90
19781;DHT22;10050;55.492;13.506;2023-02-04T03:54:48;0.00;99.90
19781;DHT22;10050;55.492;13.506;2023-02-04T03:57:13;-0.10;99.90
19781;DHT22;10050;55.492;13.506;2023-02-04T03:59:40;-0.10;99.90
19781;DHT22;10050;55.492;13.506;2023-02-04T04:02:06;-0.20;99.90
19781;DHT22;10050;55.492;13.506;2023-02-04T04:04:32;-0.10;99.90
19781;DHT22;10050;55.492;13.506;2023-02-04T04:06:58;-0.20;99.90
19781;DHT22;10050;55.492;13.506;2023-02-04T04:09:23;-0.20;99.90
19781;DHT22;10050;55.492;13.506;2023-02-04T04:11:49;-0.20;99.90
19781;DHT22;10050;55.492;13.506;2023-02-04T04:14:15;-0.30;99.90
19781;DHT22;10050;55.492;13.506;2023-02-04T04:16:40;-0.30;99.90
19781;DHT22;10050;55.492;13.506;2023-02-04T04:19:06;-0.20;99.90
19781;DHT22;10050;55.492;13.506;2023-02-04T04:21:32;-0.30;99.90
19781;DHT22;10050;55.492;13.506;2023-02-04T04:23:57;-0.20;99.90
19781;DHT22;10050;55.492;13.506;2023-02-04T04:26:23;-0.30;99.90
19781;DHT22;10050;55.492;13.506;2023-02-04T04:28:48;-0.30;99.90
19781;DHT22;10050;55.492;13.506;2023-02-04T04:31:14;-0.30;99.90
19781;DHT22;10050;55.492;13.506;2023-02-04T04:33:40;-0.30;99.90
19781;DHT22;10050;55.492;13.506;2023-02-04T04:36:06;-0.30;99.90
19781;DHT22;10050;55.492;13.506;2023-02-04T04:38:32;-0.40;99.90
19781;DHT22;10050;55.492;13.506;2023-02-04T04:40:58;-0.40;99.90
19781;DHT22;10050;55.492;13.506;2023-02-04T04:43:23;-0.40;99.90
19781;DHT22;10050;55.492;13.506;2023-02-04T04:45:49;-0.50;99.90
19781;DHT22;10050;55.492;13.506;2023-02-04T04:48:15;-0.50;99.90
19781;DHT22;10050;55.492;13.506;2023-02-04T04:50:40;-0.40;99.90
19781;DHT22;10050;55.492;13.506;2023-02-04T04:53:06;-0.40;99.90
19781;DHT22;10050;55.492;13.506;2023-02-04T04:55:36;-0.40;99.90
19781;DHT22;10050;55.492;13.506;2023-02-04T04:58:03;-0.50;99.90
19781;DHT22;10050;55.492;13.506;2023-02-04T05:00:28;-0.50;99.90
19781;DHT22;10050;55.492;13.506;2023-02-04T05:02:54;-0.40;99.90
19781;DHT22;10050;55.492;13.506;2023-02-04T05:05:20;-0.40;99.90
19781;DHT22;10050;55.492;13.506;2023-02-04T05:07:45;-0.40;99.90
19781;DHT22;10050;55.492;13.506;2023-02-04T05:10:11;-0.50;99.90
19781;DHT22;10050;55.492;13.506;2023-02-04T05:12:36;-0.50;99.90
19781;DHT22;10050;55.492;13.506;2023-02-04T05:15:03;-0.50;99.90
19781;DHT22;10050;55.492;13.506;2023-02-04T05:17:29;-0.50;99.90
19781;DHT22;10050;55.492;13.506;2023-02-04T05:19:55;-0.60;99.90
19781;DHT22;10050;55.492;13.506;2023-02-04T05:22:20;-0.60;99.90
19781;DHT22;10050;55.492;13.506;2023-02-04T05:24:46;-0.70;99.90
19781;DHT22;10050;55.492;13.506;2023-02-04T05:27:12;-0.70;99.90
19781;DHT22;10050;55.492;13.506;2023-02-04T05:29:37;-0.70;99.90
19781;DHT22;10050;55.492;13.506;2023-02-04T05:32:03;-0.70;99.90
19781;DHT22;10050;55.492;13.506;2023-02-04T05:34:29;-0.70;99.90
19781;DHT22;10050;55.492;13.506;2023-02-04T05:36:54;-0.70;99.90
19781;DHT22;10050;55.492;13.506;2023-02-04T05:39:20;-0.80;99.90
19781;DHT22;10050;55.492;13.506;2023-02-04T05:41:46;-0.70;99.90
19781;DHT22;10050;55.492;13.506;2023-02-04T05:44:12;-0.70;99.90
19781;DHT22;10050;55.492;13.506;2023-02-04T05:46:37;-0.70;99.90
19781;DHT22;10050;55.492;13.506;2023-02-04T05:49:04;-0.80;99.90
19781;DHT22;10050;55.492;13.506;2023-02-04T05:51:30;-0.80;99.90
19781;DHT22;10050;55.492;13.506;2023-02-04T05:53:55;-0.80;99.90
19781;DHT22;10050;55.492;13.506;2023-02-04T05:56:21;-0.90;99.90
19781;DHT22;10050;55.492;13.506;2023-02-04T05:58:47;-0.90;99.90
19781;DHT22;10050;55.492;13.506;2023-02-04T06:01:12;-1.00;99.90
19781;DHT22;10050;55.492;13.506;2023-02-04T06:03:38;-1.00;99.90
19781;DHT22;10050;55.492;13.506;2023-02-04T06:06:04;-0.90;99.90
19781;DHT22;10050;55.492;13.506;2023-02-04T06:08:29;-0.80;99.90
19781;DHT22;10050;55.492;13.506;2023-02-04T06:10:55;-0.90;99.90
19781;DHT22;10050;55.492;13.506;2023-02-04T06:13:20;-0.90;99.90
19781;DHT22;10050;55.492;13.506;2023-02-04T06:15:46;-1.00;99.90
19781;DHT22;10050;55.492;13.506;2023-02-04T06:18:12;-1.00;99.90
19781;DHT22;10050;55.492;13.506;2023-02-04T06:20:38;-1.00;99.90
19781;DHT22;10050;55.492;13.506;2023-02-04T06:23:04;-1.10;99.90
19781;DHT22;10050;55.492;13.506;2023-02-04T06:25:29;-1.20;99.90
19781;DHT22;10050;55.492;13.506;2023-02-04T06:27:55;-1.20;99.90
19781;DHT22;10050;55.492;13.506;2023-02-04T06:30:21;-1.30;99.90
19781;DHT22;10050;55.492;13.506;2023-02-04T06:32:46;-1.40;99.90
19781;DHT22;10050;55.492;13.506;2023-02-04T06:35:12;-1.40;99.90
19781;DHT22;10050;55.492;13.506;2023-02-04T06:37:39;-1.30;99.90
19781;DHT22;10050;55.492;13.506;2023-02-04T06:40:06;-1.40;99.90
19781;DHT22;10050;55.492;13.506;2023-02-04T06:42:33;-1.40;99.90
19781;DHT22;10050;55.492;13.506;2023-02-04T06:44:58;-1.40;99.90
19781;DHT22;10050;55.492;13.506;2023-02-04T06:47:24;-1.40;99.90
19781;DHT22;10050;55.492;13.506;2023-02-04T06:49:50;-1.40;99.90
19781;DHT22;10050;55.492;13.506;2023-02-04T06:52:15;-1.40;99.90
19781;DHT22;10050;55.492;13.506;2023-02-04T06:54:41;-1.50;99.90
19781;DHT22;10050;55.492;13.506;2023-02-04T06:57:07;-1.60;99.90
19781;DHT22;10050;55.492;13.506;2023-02-04T06:59:34;-1.60;99.90
19781;DHT22;10050;55.492;13.506;2023-02-04T07:02:00;-1.60;99.90
19781;DHT22;10050;55.492;13.506;2023-02-04T07:04:26;-1.50;99.90
19781;DHT22;10050;55.492;13.506;2023-02-04T07:06:51;-1.10;99.90
19781;DHT22;10050;55.492;13.506;2023-02-04T07:09:17;-0.70;99.90
19781;DHT22;10050;55.492;13.506;2023-02-04T07:11:42;-0.10;99.90
19781;DHT22;10050;55.492;13.506;2023-02-04T07:14:08;1.00;99.90
19781;DHT22;10050;55.492;13.506;2023-02-04T07:16:35;1.90;99.90
19781;DHT22;10050;55.492;13.506;2023-02-04T07:19:01;2.40;99.90
19781;DHT22;10050;55.492;13.506;2023-02-04T07:21:26;2.30;99.90
19781;DHT22;10050;55.492;13.506;2023-02-04T07:23:52;1.90;99.90
19781;DHT22;10050;55.492;13.506;2023-02-04T07:26:18;1.70;99.90
19781;DHT22;10050;55.492;13.506;2023-02-04T07:28:43;1.60;99.90
19781;DHT22;10050;55.492;13.506;2023-02-04T07:31:09;1.50;99.90
19781;DHT22;10050;55.492;13.506;2023-02-04T07:33:35;1.10;99.90
19781;DHT22;10050;55.492;13.506;2023-02-04T07:36:01;0.90;99.90
19781;DHT22;10050;55.492;13.506;2023-02-04T07:38:26;1.00;99.90
19781;DHT22;10050;55.492;13.506;2023-02-04T07:40:52;1.30;99.90
19781;DHT22;10050;55.492;13.506;2023-02-04T07:43:18;1.50;99.90
19781;DHT22;10050;55.492;13.506;2023-02-04T07:45:43;1.30;99.90
19781;DHT22;10050;55.492;13.506;2023-02-04T07:48:09;1.40;99.90
19781;DHT22;10050;55.492;13.506;2023-02-04T07:50:35;1.60;99.90
19781;DHT22;10050;55.492;13.506;2023-02-04T07:53:01;1.40;99.90
19781;DHT22;10050;55.492;13.506;2023-02-04T07:55:27;1.60;99.90
19781;DHT22;10050;55.492;13.506;2023-02-04T07:57:53;1.80;99.90
19781;DHT22;10050;55.492;13.506;2023-02-04T08:00:19;2.00;99.90
19781;DHT22;10050;55.492;13.506;2023-02-04T08:02:45;2.60;99.90
19781;DHT22;10050;55.492;13.506;2023-02-04T08:05:11;4.80;99.90
19781;DHT22;10050;55.492;13.506;2023-02-04T08:07:37;7.40;99.90
19781;DHT22;10050;55.492;13.506;2023-02-04T08:10:07;9.80;99.90
19781;DHT22;10050;55.492;13.506;2023-02-04T08:12:33;12.50;99.90
19781;DHT22;10050;55.492;13.506;2023-02-04T08:14:59;14.00;99.90
19781;DHT22;10050;55.492;13.506;2023-02-04T08:17:26;14.80;99.90
19781;DHT22;10050;55.492;13.506;2023-02-04T08:19:51;15.70;99.90
19781;DHT22;10050;55.492;13.506;2023-02-04T08:22:17;16.10;99.90
19781;DHT22;10050;55.492;13.506;2023-02-04T08:24:43;16.40;98.80
19781;DHT22;10050;55.492;13.506;2023-02-04T08:27:08;16.50;95.60
19781;DHT22;10050;55.492;13.506;2023-02-04T08:29:34;17.40;93.90
19781;DHT22;10050;55.492;13.506;2023-02-04T08:32:00;17.80;92.30
19781;DHT22;10050;55.492;13.506;2023-02-04T08:34:25;18.30;92.00
19781;DHT22;10050;55.492;13.506;2023-02-04T08:36:51;18.40;90.70
19781;DHT22;10050;55.492;13.506;2023-02-04T08:39:16;18.40;90.70
19781;DHT22;10050;55.492;13.506;2023-02-04T08:41:42;18.60;90.20
19781;DHT22;10050;55.492;13.506;2023-02-04T08:44:08;17.80;90.10
19781;DHT22;10050;55.492;13.506;2023-02-04T08:46:33;17.20;90.30
19781;DHT22;10050;55.492;13.506;2023-02-04T08:48:59;17.50;90.60
19781;DHT22;10050;55.492;13.506;2023-02-04T08:51:25;17.80;90.20
19781;DHT22;10050;55.492;13.506;2023-02-04T08:53:50;18.10;90.00
19781;DHT22;10050;55.492;13.506;2023-02-04T08:56:16;17.90;90.00
19781;DHT22;10050;55.492;13.506;2023-02-04T08:58:44;17.80;90.30
19781;DHT22;10050;55.492;13.506;2023-02-04T09:01:10;18.10;88.50
19781;DHT22;10050;55.492;13.506;2023-02-04T09:03:37;17.60;89.20
19781;DHT22;10050;55.492;13.506;2023-02-04T09:06:03;17.60;88.60
19781;DHT22;10050;55.492;13.506;2023-02-04T09:08:29;17.60;88.80
19781;DHT22;10050;55.492;13.506;2023-02-04T09:10:55;17.90;89.90
19781;DHT22;10050;55.492;13.506;2023-02-04T09:13:21;17.70;88.60
19781;DHT22;10050;55.492;13.506;2023-02-04T09:15:46;17.70;88.80
19781;DHT22;10050;55.492;13.506;2023-02-04T09:18:12;17.10;87.70
19781;DHT22;10050;55.492;13.506;2023-02-04T09:20:45;16.90;89.40
19781;DHT22;10050;55.492;13.506;2023-02-04T09:23:11;17.00;90.10
19781;DHT22;10050;55.492;13.506;2023-02-04T09:25:41;17.30;89.80
19781;DHT22;10050;55.492;13.506;2023-02-04T09:28:09;17.50;90.40
19781;DHT22;10050;55.492;13.506;2023-02-04T09:30:37;17.50;90.00
19781;DHT22;10050;55.492;13.506;2023-02-04T09:33:03;17.10;88.70
19781;DHT22;10050;55.492;13.506;2023-02-04T09:35:29;16.70;90.00
19781;DHT22;10050;55.492;13.506;2023-02-04T09:37:54;16.40;90.90
19781;DHT22;10050;55.492;13.506;2023-02-04T09:40:20;16.30;91.20
19781;DHT22;10050;55.492;13.506;2023-02-04T09:42:50;15.80;90.30
19781;DHT22;10050;55.492;13.506;2023-02-04T09:45:21;15.70;91.90
19781;DHT22;10050;55.492;13.506;2023-02-04T09:47:48;15.90;91.50
19781;DHT22;10050;55.492;13.506;2023-02-04T09:50:21;15.80;92.40
19781;DHT22;10050;55.492;13.506;2023-02-04T09:52:48;15.80;91.30
19781;DHT22;10050;55.492;13.506;2023-02-04T09:55:18;15.40;91.90
19781;DHT22;10050;55.492;13.506;2023-02-04T09:57:44;15.00;90.60
19781;DHT22;10050;55.492;13.506;2023-02-04T10:00:19;15.00;93.40
19781;DHT22;10050;55.492;13.506;2023-02-04T10:02:45;15.00;92.50
19781;DHT22;10050;55.492;13.506;2023-02-04T10:05:16;14.60;93.30
19781;DHT22;10050;55.492;13.506;2023-02-04T10:07:43;14.10;92.40
19781;DHT22;10050;55.492;13.506;2023-02-04T10:10:24;13.50;95.50
19781;DHT22;10050;55.492;13.506;2023-02-04T10:12:55;13.40;94.60
19781;DHT22;10050;55.492;13.506;2023-02-04T10:15:21;13.10;95.00
19781;DHT22;10050;55.492;13.506;2023-02-04T10:17:57;13.10;95.60
19781;DHT22;10050;55.492;13.506;2023-02-04T10:20:23;12.90;96.40
19781;DHT22;10050;55.492;13.506;2023-02-04T10:22:52;12.60;95.30
19781;DHT22;10050;55.492;13.506;2023-02-04T10:25:20;12.60;96.60
19781;DHT22;10050;55.492;13.506;2023-02-04T10:27:54;12.40;96.30
19781;DHT22;10050;55.492;13.506;2023-02-04T10:30:27;12.40;96.00
19781;DHT22;10050;55.492;13.506;2023-02-04T10:32:53;12.40;95.80
19781;DHT22;10050;55.492;13.506;2023-02-04T10:35:21;12.40;97.00
19781;DHT22;10050;55.492;13.506;2023-02-04T10:37:47;12.40;97.70
19781;DHT22;10050;55.492;13.506;2023-02-04T10:40:29;12.00;95.70
19781;DHT22;10050;55.492;13.506;2023-02-04T10:42:55;11.50;96.10
19781;DHT22;10050;55.492;13.506;2023-02-04T10:45:29;11.30;98.90
19781;DHT22;10050;55.492;13.506;2023-02-04T10:47:55;11.10;99.90
19781;DHT22;10050;55.492;13.506;2023-02-04T10:50:25;11.20;98.10
19781;DHT22;10050;55.492;13.506;2023-02-04T10:52:56;11.00;97.40
19781;DHT22;10050;55.492;13.506;2023-02-04T10:55:46;10.70;97.30
19781;DHT22;10050;55.492;13.506;2023-02-04T10:58:16;10.60;98.80
19781;DHT22;10050;55.492;13.506;2023-02-04T11:00:43;10.40;99.60
19781;DHT22;10050;55.492;13.506;2023-02-04T11:03:29;10.10;97.20
19781;DHT22;10050;55.492;13.506;2023-02-04T11:05:57;10.00;98.00
19781;DHT22;10050;55.492;13.506;2023-02-04T11:08:30;9.80;98.60
19781;DHT22;10050;55.492;13.506;2023-02-04T11:10:59;9.60;99.90
19781;DHT22;10050;55.492;13.506;2023-02-04T11:13:38;9.70;99.50
19781;DHT22;10050;55.492;13.506;2023-02-04T11:18:51;9.30;99.90
19781;DHT22;10050;55.492;13.506;2023-02-04T11:27:06;8.90;99.90
19781;DHT22;10050;55.492;13.506;2023-02-04T11:29:34;8.70;99.90
19781;DHT22;10050;55.492;13.506;2023-02-04T11:32:28;8.60;99.90
19781;DHT22;10050;55.492;13.506;2023-02-04T11:35:26;8.30;99.90
19781;DHT22;10050;55.492;13.506;2023-02-04T11:37:50;8.00;99.90
19781;DHT22;10050;55.492;13.506;2023-02-04T11:42:58;7.60;99.90
19781;DHT22;10050;55.492;13.506;2023-02-04T11:45:30;7.50;99.90
19781;DHT22;10050;55.492;13.506;2023-02-04T11:48:09;7.40;99.90
19781;DHT22;10050;55.492;13.506;2023-02-04T11:50:36;7.00;99.90
19781;DHT22;10050;55.492;13.506;2023-02-04T11:53:07;6.80;99.90
19781;DHT22;10050;55.492;13.506;2023-02-04T11:55:35;6.50;99.90
19781;DHT22;10050;55.492;13.506;2023-02-04T11:58:02;6.30;99.90
19781;DHT22;10050;55.492;13.506;2023-02-04T12:00:30;6.10;99.90
19781;DHT22;10050;55.492;13.506;2023-02-04T12:03:26;5.90;99.90
19781;DHT22;10050;55.492;13.506;2023-02-04T12:05:54;5.80;99.90
19781;DHT22;10050;55.492;13.506;2023-02-04T12:13:27;4.70;99.90
19781;DHT22;10050;55.492;13.506;2023-02-04T12:18:28;4.60;99.90
19781;DHT22;10050;55.492;13.506;2023-02-04T12:20:55;4.50;99.90
19781;DHT22;10050;55.492;13.506;2023-02-04T12:23:22;4.60;99.90
19781;DHT22;10050;55.492;13.506;2023-02-04T12:25:48;4.40;99.90
19781;DHT22;10050;55.492;13.506;2023-02-04T12:28:14;4.30;99.90
19781;DHT22;10050;55.492;13.506;2023-02-04T12:30:40;4.20;99.90
19781;DHT22;10050;55.492;13.506;2023-02-04T12:33:06;4.20;99.90
19781;DHT22;10050;55.492;13.506;2023-02-04T12:35:32;4.20;99.90
19781;DHT22;10050;55.492;13.506;2023-02-04T12:37:58;4.20;99.90
19781;DHT22;10050;55.492;13.506;2023-02-04T12:40:24;4.10;99.90
19781;DHT22;10050;55.492;13.506;2023-02-04T12:42:49;4.20;99.90
19781;DHT22;10050;55.492;13.506;2023-02-04T12:45:16;4.20;99.90
19781;DHT22;10050;55.492;13.506;2023-02-04T12:47:42;4.10;99.90
19781;DHT22;10050;55.492;13.506;2023-02-04T12:50:10;3.80;99.90
19781;DHT22;10050;55.492;13.506;2023-02-04T12:52:36;3.60;99.90
19781;DHT22;10050;55.492;13.506;2023-02-04T12:55:04;3.50;99.90
19781;DHT22;10050;55.492;13.506;2023-02-04T12:57:32;3.60;99.90
19781;DHT22;10050;55.492;13.506;2023-02-04T12:59:58;3.80;99.90
19781;DHT22;10050;55.492;13.506;2023-02-04T13:02:26;3.70;99.90
19781;DHT22;10050;55.492;13.506;2023-02-04T13:04:52;3.80;99.90
19781;DHT22;10050;55.492;13.506;2023-02-04T13:07:18;3.70;99.90
19781;DHT22;10050;55.492;13.506;2023-02-04T13:09:44;3.70;99.90
19781;DHT22;10050;55.492;13.506;2023-02-04T13:12:10;3.70;99.90
19781;DHT22;10050;55.492;13.506;2023-02-04T13:14:38;3.70;99.90
19781;DHT22;10050;55.492;13.506;2023-02-04T13:17:05;3.70;99.90
19781;DHT22;10050;55.492;13.506;2023-02-04T13:19:30;3.60;99.90
19781;DHT22;10050;55.492;13.506;2023-02-04T13:21:57;3.60;99.90
19781;DHT22;10050;55.492;13.506;2023-02-04T13:24:23;3.50;99.90
19781;DHT22;10050;55.492;13.506;2023-02-04T13:26:49;3.40;99.90
19781;DHT22;10050;55.492;13.506;2023-02-04T13:29:14;3.40;99.90
19781;DHT22;10050;55.492;13.506;2023-02-04T13:31:40;3.30;99.90
19781;DHT22;10050;55.492;13.506;2023-02-04T13:34:06;3.30;99.90
19781;DHT22;10050;55.492;13.506;2023-02-04T13:36:31;3.20;99.90
19781;DHT22;10050;55.492;13.506;2023-02-04T13:38:57;3.20;99.90
19781;DHT22;10050;55.492;13.506;2023-02-04T13:41:25;3.10;99.90
19781;DHT22;10050;55.492;13.506;2023-02-04T13:43:50;3.10;99.90
19781;DHT22;10050;55.492;13.506;2023-02-04T13:46:16;3.20;99.90
19781;DHT22;10050;55.492;13.506;2023-02-04T13:48:42;3.10;99.90
19781;DHT22;10050;55.492;13.506;2023-02-04T13:51:07;3.00;99.90
19781;DHT22;10050;55.492;13.506;2023-02-04T13:53:33;2.90;99.90
19781;DHT22;10050;55.492;13.506;2023-02-04T13:55:58;2.90;99.90
19781;DHT22;10050;55.492;13.506;2023-02-04T13:58:26;2.90;99.90
19781;DHT22;10050;55.492;13.506;2023-02-04T14:00:51;2.90;99.90
19781;DHT22;10050;55.492;13.506;2023-02-04T14:03:25;2.80;99.90
19781;DHT22;10050;55.492;13.506;2023-02-04T14:05:51;2.60;99.90
19781;DHT22;10050;55.492;13.506;2023-02-04T14:08:18;2.50;99.90
19781;DHT22;10050;55.492;13.506;2023-02-04T14:10:44;2.60;99.90
19781;DHT22;10050;55.492;13.506;2023-02-04T14:13:12;2.60;99.90
19781;DHT22;10050;55.492;13.506;2023-02-04T14:15:37;2.60;99.90
19781;DHT22;10050;55.492;13.506;2023-02-04T14:18:05;2.50;99.90
19781;DHT22;10050;55.492;13.506;2023-02-04T14:20:30;2.50;99.90
19781;DHT22;10050;55.492;13.506;2023-02-04T14:22:56;2.40;99.90
19781;DHT22;10050;55.492;13.506;2023-02-04T14:25:22;2.30;99.90
19781;DHT22;10050;55.492;13.506;2023-02-04T14:27:48;2.20;99.90
19781;DHT22;10050;55.492;13.506;2023-02-04T14:32:42;2.10;99.90
19781;DHT22;10050;55.492;13.506;2023-02-04T14:35:08;2.00;99.90
19781;DHT22;10050;55.492;13.506;2023-02-04T14:37:33;2.10;99.90
19781;DHT22;10050;55.492;13.506;2023-02-04T14:39:59;2.00;99.90
19781;DHT22;10050;55.492;13.506;2023-02-04T14:42:24;1.80;99.90
19781;DHT22;10050;55.492;13.506;2023-02-04T14:44:50;1.70;99.90
19781;DHT22;10050;55.492;13.506;2023-02-04T14:47:16;1.70;99.90
19781;DHT22;10050;55.492;13.506;2023-02-04T14:49:41;1.60;99.90
19781;DHT22;10050;55.492;13.506;2023-02-04T14:52:07;1.60;99.90
19781;DHT22;10050;55.492;13.506;2023-02-04T14:54:33;1.60;99.90
19781;DHT22;10050;55.492;13.506;2023-02-04T14:56:59;1.60;99.90
19781;DHT22;10050;55.492;13.506;2023-02-04T14:59:24;1.60;99.90
19781;DHT22;10050;55.492;13.506;2023-02-04T15:01:50;1.60;99.90
19781;DHT22;10050;55.492;13.506;2023-02-04T15:04:15;1.50;99.90
19781;DHT22;10050;55.492;13.506;2023-02-04T15:06:42;1.50;99.90
19781;DHT22;10050;55.492;13.506;2023-02-04T15:09:10;1.40;99.90
19781;DHT22;10050;55.492;13.506;2023-02-04T15:11:36;1.40;99.90
19781;DHT22;10050;55.492;13.506;2023-02-04T15:14:02;1.30;99.90
19781;DHT22;10050;55.492;13.506;2023-02-04T15:16:28;1.30;99.90
19781;DHT22;10050;55.492;13.506;2023-02-04T15:18:54;1.30;99.90
19781;DHT22;10050;55.492;13.506;2023-02-04T15:21:20;1.30;99.90
19781;DHT22;10050;55.492;13.506;2023-02-04T15:23:45;1.30;99.90
19781;DHT22;10050;55.492;13.506;2023-02-04T15:26:12;1.20;99.90
19781;DHT22;10050;55.492;13.506;2023-02-04T15:28:38;1.10;99.90
19781;DHT22;10050;55.492;13.506;2023-02-04T15:31:04;1.00;99.90
19781;DHT22;10050;55.492;13.506;2023-02-04T15:33:30;1.00;99.90
19781;DHT22;10050;55.492;13.506;2023-02-04T15:35:56;0.90;99.90
19781;DHT22;10050;55.492;13.506;2023-02-04T15:38:22;0.90;99.90
19781;DHT22;10050;55.492;13.506;2023-02-04T15:40:48;0.90;99.90
19781;DHT22;10050;55.492;13.506;2023-02-04T15:43:13;0.90;99.90
19781;DHT22;10050;55.492;13.506;2023-02-04T15:45:39;1.00;99.90